Meteorología y climatología de Navarra
Datos de la estación - Meteo Navarra

Estación de Carrascal GN

Altitud 568 m.


Datos desde el 14/08/2019 hasta el 15/08/2019 en horario solar
Los datos son PROVISIONALES

Anterior Página 1 de 1 Siguiente Descargar: Formato para Excel 2000 o superior   Formato csv   Formato para OpenOffice Calc
Fecha Temperatura Humedad relativa Radiación global Insolación Precipitación Vel. viento 10 m Vel. viento 10 m Dir. viento 10 m
ºC % W/m² s l/m² m/s km/h º
14/08/2019 0:00 13.0 81 0.0 0 0.0 8.8 31.5 40
14/08/2019 0:10 12.8 81 0.0 0 0.0 6.8 24.4 35
14/08/2019 0:20 12.7 82 0.0 0 0.0 6.3 22.6 37
14/08/2019 0:30 12.5 83 0.0 0 0.0 6.4 22.9 37
14/08/2019 0:40 12.2 84 0.0 0 0.0 5.2 18.8 30
14/08/2019 0:50 12.4 84 0.0 0 0.0 6.2 22.1 37
14/08/2019 1:00 12.3 84 0.0 0 0.0 6.2 22.4 38
14/08/2019 1:10 12.1 85 0.0 0 0.0 6.1 22.1 38
14/08/2019 1:20 12.1 85 0.0 0 0.0 5.8 20.7 42
14/08/2019 1:30 11.5 86 0.0 0 0.0 6.0 21.6 43
14/08/2019 1:40 11.4 88 0.0 0 0.0 6.9 24.7 41
14/08/2019 1:50 12.0 85 0.0 0 0.0 7.0 25.3 45
14/08/2019 2:00 13.1 81 0.0 0 0.0 8.1 29.1 35
14/08/2019 2:10 12.4 83 0.0 0 0.0 6.5 23.5 50
14/08/2019 2:20 11.7 87 0.0 0 0.0 5.4 19.3 51
14/08/2019 2:30 11.9 85 0.0 0 0.0 3.9 13.9 40
14/08/2019 2:40 11.9 85 0.0 0 0.0 3.8 13.6 10
14/08/2019 2:50 11.4 87 0.0 0 0.0 4.5 16.1 10
14/08/2019 3:00 11.4 87 0.0 0 0.0 4.0 14.3 19
14/08/2019 3:10 11.3 86 0.0 0 0.0 3.8 13.8 15
14/08/2019 3:20 10.9 88 0.0 0 0.0 4.7 16.9 11
14/08/2019 3:30 11.1 89 0.0 0 0.0 3.9 14.2 24
14/08/2019 3:40 10.8 89 0.0 0 0.0 4.4 15.7 33
14/08/2019 3:50 10.9 90 0.0 0 0.0 4.2 15.1 29
14/08/2019 4:00 10.5 91 0.0 0 0.0 5.1 18.3 20
14/08/2019 4:10 10.5 91 0.0 0 0.0 4.9 17.6 20
14/08/2019 4:20 10.2 92 0.0 0 0.0 5.1 18.4 21
14/08/2019 4:30 9.9 93 0.0 0 0.0 4.5 16.2 28
14/08/2019 4:40 9.9 94 0.0 0 0.0 4.9 17.5 26
14/08/2019 4:50 9.7 93 0.0 0 0.0 5.7 20.3 35
14/08/2019 5:00 9.6 94 0.0 0 0.0 5.2 18.9 27
14/08/2019 5:10 9.7 93 0.0 0 0.0 4.6 16.6 37
14/08/2019 5:20 9.2 94 0.0 0 0.0 5.9 21.1 38
14/08/2019 5:30 9.3 94 2.5 0 0.0 7.0 25.2 41
14/08/2019 5:40 9.1 94 22.2 0 0.0 5.8 20.7 34
14/08/2019 5:50 9.2 94 26.7 0 0.0 5.1 18.3 43
14/08/2019 6:00 9.2 94 47.7 150 0.0 3.7 13.3 36
14/08/2019 6:10 9.7 93 106.3 520 0.0 4.9 17.7 52
14/08/2019 6:20 10.4 90 139.9 600 0.0 4.8 17.2 50
14/08/2019 6:30 11.0 88 170.7 600 0.0 4.8 17.3 42
14/08/2019 6:40 11.2 85 201.5 600 0.0 5.4 19.4 39
14/08/2019 6:50 11.6 82 231.8 600 0.0 5.0 18.1 39
14/08/2019 7:00 11.8 82 263.3 600 0.0 6.7 24.2 46
14/08/2019 7:10 12.2 82 294.4 600 0.0 6.4 22.9 46
14/08/2019 7:20 12.9 80 325.5 600 0.0 5.9 21.4 43
14/08/2019 7:30 13.3 78 357.8 600 0.0 6.2 22.4 46
14/08/2019 7:40 13.5 77 390.2 600 0.0 5.9 21.2 41
14/08/2019 7:50 14.0 75 422.1 600 0.0 5.7 20.3 41
14/08/2019 8:00 14.7 73 453.3 600 0.0 5.3 19.0 45
14/08/2019 8:10 15.2 70 482.6 600 0.0 5.6 20.2 47
14/08/2019 8:20 15.9 68 510.1 600 0.0 5.9 21.2 46
14/08/2019 8:30 16.2 66 537.9 600 0.0 5.7 20.3 38
14/08/2019 8:40 16.7 64 565.9 600 0.0 5.8 20.8 41
14/08/2019 8:50 17.5 59 595.2 600 0.0 5.5 19.6 44
14/08/2019 9:00 17.9 54 622.2 600 0.0 4.8 17.1 38
14/08/2019 9:10 18.6 50 647.6 600 0.0 5.0 17.9 47
14/08/2019 9:20 18.9 49 672.8 600 0.0 5.0 18.1 47
14/08/2019 9:30 19.6 45 696.4 600 0.0 4.8 17.2 42
14/08/2019 9:40 20.2 41 719.2 600 0.0 5.0 18.0 46
14/08/2019 9:50 20.6 40 738.2 600 0.0 5.0 18.1 41
14/08/2019 10:00 21.3 40 759.7 600 0.0 5.0 17.8 46
14/08/2019 10:10 21.5 39 781.9 600 0.0 5.0 18.1 39
14/08/2019 10:20 22.4 36 801.0 600 0.0 5.1 18.3 42
14/08/2019 10:30 22.5 35 832.0 600 0.0 4.9 17.6 36
14/08/2019 10:40 23.2 33 868.0 600 0.0 5.0 18.0 42
14/08/2019 10:50 23.7 30 858.0 600 0.0 5.1 18.4 54
14/08/2019 11:00 23.7 31 807.0 600 0.0 4.7 16.8 46
14/08/2019 11:10 24.4 31 875.0 600 0.0 5.0 18.1 49
14/08/2019 11:20 24.7 30 917.0 600 0.0 4.6 16.6 47
14/08/2019 11:30 25.1 31 908.0 600 0.0 3.7 13.4 25
14/08/2019 11:40 26.2 29 912.0 600 0.0 3.3 12.0 23
14/08/2019 11:50 25.9 30 950.0 600 0.0 3.9 13.9 20
14/08/2019 12:00 25.8 30 967.0 600 0.0 4.8 17.2 39
14/08/2019 12:10 25.7 31 973.0 600 0.0 4.7 17.1 66
14/08/2019 12:20 26.0 31 982.0 600 0.0 4.6 16.6 70
14/08/2019 12:30 26.6 31 708.1 560 0.0 6.0 21.4 15
14/08/2019 12:40 26.8 31 946.0 600 0.0 6.5 23.5 26
14/08/2019 12:50 27.1 31 930.0 600 0.0 6.3 22.7 23
14/08/2019 13:00 27.0 31 915.0 600 0.0 7.0 25.2 36
14/08/2019 13:10 27.3 32 897.0 600 0.0 6.8 24.4 19
14/08/2019 13:20 27.2 33 886.0 600 0.0 7.7 27.7 19
14/08/2019 13:30 27.5 33 877.0 600 0.0 7.3 26.2 8
14/08/2019 13:40 27.9 33 864.0 600 0.0 7.0 25.3 356
14/08/2019 13:50 28.4 32 850.0 600 0.0 6.4 23.1 1
14/08/2019 14:00 27.6 33 835.0 600 0.0 7.3 26.2 13
14/08/2019 14:10 27.6 32 819.0 600 0.0 7.7 27.7 3
14/08/2019 14:20 27.4 32 803.0 600 0.0 8.2 29.3 8
14/08/2019 14:30 27.0 33 783.7 600 0.0 8.1 29.0 13
14/08/2019 14:40 27.3 34 762.0 600 0.0 8.2 29.4 28
14/08/2019 14:50 26.8 34 739.7 600 0.0 8.2 29.5 23
14/08/2019 15:00 27.2 35 716.3 600 0.0 8.3 29.8 359
14/08/2019 15:10 26.5 36 691.6 600 0.0 7.8 28.1 14
14/08/2019 15:20 26.5 37 663.6 600 0.0 8.3 30.0 19
14/08/2019 15:30 26.6 37 635.6 600 0.0 8.4 30.2 10
14/08/2019 15:40 26.1 39 607.1 600 0.0 9.1 32.9 14
14/08/2019 15:50 25.9 40 577.2 600 0.0 8.9 32.1 8
14/08/2019 16:00 25.6 40 547.8 600 0.0 8.4 30.3 27
14/08/2019 16:10 25.3 40 518.6 600 0.0 9.6 34.6 25
14/08/2019 16:20 25.3 40 488.8 600 0.0 9.6 34.4 23
14/08/2019 16:30 25.2 40 458.5 600 0.0 9.0 32.4 26
14/08/2019 16:40 25.2 39 428.5 600 0.0 9.2 33.3 19
14/08/2019 16:50 25.1 39 397.9 600 0.0 9.8 35.1 11
14/08/2019 17:00 24.6 39 367.0 600 0.0 9.9 35.6 14
14/08/2019 17:10 24.4 40 319.7 600 0.0 9.9 35.6 11
14/08/2019 17:20 24.3 41 320.2 600 0.0 10.6 38.0 13
14/08/2019 17:30 24.0 42 282.5 600 0.0 9.6 34.4 19
14/08/2019 17:40 23.6 44 246.8 600 0.0 11.1 39.8 13
14/08/2019 17:50 23.4 46 211.9 600 0.0 9.4 33.9 21
14/08/2019 18:00 23.1 48 184.1 600 0.0 8.9 32.1 33
14/08/2019 18:10 22.8 50 158.0 600 0.0 9.2 33.3 30
14/08/2019 18:20 22.3 51 101.8 408 0.0 10.4 37.3 36
14/08/2019 18:30 21.9 53 37.9 0 0.0 9.3 33.3 36
14/08/2019 18:40 21.8 54 39.8 186 0.0 8.8 31.6 39
14/08/2019 18:50 21.5 56 45.9 600 0.0 10.0 36.1 42
14/08/2019 19:00 21.3 57 26.6 128 0.0 12.0 43.2 38
14/08/2019 19:10 21.0 59 1.7 0 0.0 12.5 45.1 37
14/08/2019 19:20 20.7 61 0.0 0 0.0 11.8 42.6 37
14/08/2019 19:30 20.3 64 0.0 0 0.0 12.1 43.7 40
14/08/2019 19:40 20.0 64 0.0 0 0.0 11.3 40.7 42
14/08/2019 19:50 19.8 63 0.0 0 0.0 11.7 42.1 46
14/08/2019 20:00 19.8 63 0.0 0 0.0 11.6 41.7 48
14/08/2019 20:10 19.6 64 0.0 0 0.0 10.7 38.4 51
14/08/2019 20:20 19.5 66 0.0 0 0.0 10.0 35.9 43
14/08/2019 20:30 19.3 65 0.0 0 0.0 9.8 35.3 39
14/08/2019 20:40 19.1 65 0.0 0 0.0 10.1 36.4 35
14/08/2019 20:50 19.1 66 0.0 0 0.0 10.2 36.8 40
14/08/2019 21:00 19.0 68 0.0 0 0.0 9.5 34.2 40
14/08/2019 21:10 19.0 68 0.0 0 0.0 10.4 37.5 40
14/08/2019 21:20 18.9 70 0.0 0 0.0 10.4 37.5 40
14/08/2019 21:30 18.7 71 0.0 0 0.0 10.9 39.1 38
14/08/2019 21:40 18.5 72 0.0 0 0.0 10.4 37.3 38
14/08/2019 21:50 18.6 73 0.0 0 0.0 10.7 38.5 39
14/08/2019 22:00 18.5 74 0.0 0 0.0 10.2 36.9 41
14/08/2019 22:10 18.6 75 0.0 0 0.0 10.0 36.1 41
14/08/2019 22:20 18.4 76 0.0 0 0.0 11.4 40.9 42
14/08/2019 22:30 18.4 76 0.0 0 0.0 10.7 38.5 38
14/08/2019 22:40 18.4 77 0.0 0 0.0 10.1 36.5 39
14/08/2019 22:50 18.2 77 0.0 0 0.0 11.4 41.1 42
14/08/2019 23:00 18.2 78 0.0 0 0.0 10.1 36.2 42
14/08/2019 23:10 18.2 79 0.0 0 0.0 9.1 32.6 40
14/08/2019 23:20 18.3 79 0.0 0 0.0 8.9 32.0 38
14/08/2019 23:30 18.1 79 0.0 0 0.0 6.9 24.8 26
14/08/2019 23:40 18.0 80 0.0 0 0.0 7.7 27.9 33
14/08/2019 23:50 18.3 79 0.0 0 0.0 7.6 27.4 23
Anterior Página 1 de 1 Siguiente

NOTA: Tipo de datos según el color:
   - Valores diarios o 10 minutos correctos
   - Valores diarios calculados a partir de un número de datos 10 minutos menor que 144 y mayor que 120, o de un número de datos semihorarios menor que 48 y mayor que 40 (caso de las estaciones de Riegos de Navarra y del MARM)
   - Valores diez minutos estimados


Contacto        Enlaces        Aviso legal